Terminal Aerodrome Forecast
Issued by NWS

Home | Current Version | Previous Version | Text Only | Print | Product List | Glossary On
Versions: 1 2 3 4 5 6 7 8 9 10 11 12 13
000
FTUS46 KSEW 201100
TAFBFI
TAF
KBFI 201122Z 2012/2112 14007KT P6SM -RA OVC040
     FM201600 15010G20KT P6SM -RA SCT025 OVC040
      TEMPO 2016/2020 5SM -RA BR BKN025 OVC035
     FM202200 20012G22KT P6SM -RA BKN025 OVC040
     FM211100 22012KT P6SM -SHRA BKN025 BKN040=

USA.gov is the U.S. government's official web portal to all federal, state and local government web resources and services.